sensor_id;sensor_type;location;lat;lon;timestamp;P1;durP1;ratioP1;P2;durP2;ratioP2
21084;SDS011;34247;50.064;19.970;2023-04-25T00:00:14;4.78;;;3.20;;
21084;SDS011;34247;50.064;19.970;2023-04-25T00:01:23;5.65;;;3.25;;
21084;SDS011;34247;50.064;19.970;2023-04-25T00:02:26;5.38;;;2.85;;
21084;SDS011;34247;50.064;19.970;2023-04-25T00:03:32;4.28;;;3.17;;
21084;SDS011;34247;50.064;19.970;2023-04-25T00:04:36;6.88;;;3.35;;
21084;SDS011;34247;50.064;19.970;2023-04-25T00:05:41;3.03;;;2.63;;
21084;SDS011;34247;50.064;19.970;2023-04-25T00:06:45;6.10;;;3.28;;
21084;SDS011;34247;50.064;19.970;2023-04-25T00:07:49;5.95;;;3.25;;
21084;SDS011;34247;50.064;19.970;2023-04-25T00:08:54;3.72;;;2.60;;
21084;SDS011;34247;50.064;19.970;2023-04-25T00:09:59;14.80;;;3.97;;
21084;SDS011;34247;50.064;19.970;2023-04-25T00:11:03;5.32;;;4.10;;
21084;SDS011;34247;50.064;19.970;2023-04-25T00:12:07;6.10;;;3.72;;
21084;SDS011;34247;50.064;19.970;2023-04-25T00:13:14;5.60;;;3.50;;
21084;SDS011;34247;50.064;19.970;2023-04-25T00:14:20;7.13;;;4.80;;
21084;SDS011;34247;50.064;19.970;2023-04-25T00:15:24;2.97;;;2.20;;
21084;SDS011;34247;50.064;19.970;2023-04-25T00:16:29;3.42;;;2.40;;
21084;SDS011;34247;50.064;19.970;2023-04-25T00:17:37;3.45;;;2.55;;
21084;SDS011;34247;50.064;19.970;2023-04-25T00:18:42;4.47;;;2.55;;
21084;SDS011;34247;50.064;19.970;2023-04-25T00:19:46;2.30;;;1.85;;
21084;SDS011;34247;50.064;19.970;2023-04-25T00:20:51;3.67;;;1.58;;
21084;SDS011;34247;50.064;19.970;2023-04-25T00:21:55;11.63;;;1.63;;
21084;SDS011;34247;50.064;19.970;2023-04-25T00:22:59;1.02;;;0.93;;
21084;SDS011;34247;50.064;19.970;2023-04-25T00:24:03;1.83;;;1.52;;
21084;SDS011;34247;50.064;19.970;2023-04-25T00:25:08;1.60;;;1.48;;
21084;SDS011;34247;50.064;19.970;2023-04-25T00:26:13;1.00;;;0.90;;
21084;SDS011;34247;50.064;19.970;2023-04-25T00:27:17;1.80;;;1.42;;
21084;SDS011;34247;50.064;19.970;2023-04-25T00:28:20;1.65;;;1.30;;
21084;SDS011;34247;50.064;19.970;2023-04-25T00:29:27;0.90;;;0.80;;
21084;SDS011;34247;50.064;19.970;2023-04-25T00:30:30;1.15;;;1.05;;
21084;SDS011;34247;50.064;19.970;2023-04-25T00:31:36;1.10;;;1.02;;
21084;SDS011;34247;50.064;19.970;2023-04-25T00:32:41;0.77;;;0.77;;
21084;SDS011;34247;50.064;19.970;2023-04-25T00:33:47;1.45;;;1.08;;
21084;SDS011;34247;50.064;19.970;2023-04-25T00:34:51;1.25;;;1.00;;
21084;SDS011;34247;50.064;19.970;2023-04-25T00:35:55;1.08;;;1.08;;
21084;SDS011;34247;50.064;19.970;2023-04-25T00:36:59;1.00;;;1.00;;
21084;SDS011;34247;50.064;19.970;2023-04-25T00:38:04;0.80;;;0.80;;
21084;SDS011;34247;50.064;19.970;2023-04-25T00:39:09;0.80;;;0.80;;
21084;SDS011;34247;50.064;19.970;2023-04-25T00:40:14;0.77;;;0.77;;
21084;SDS011;34247;50.064;19.970;2023-04-25T00:41:18;0.77;;;0.77;;
21084;SDS011;34247;50.064;19.970;2023-04-25T00:42:23;0.82;;;0.80;;
21084;SDS011;34247;50.064;19.970;2023-04-25T00:43:28;1.02;;;0.80;;
21084;SDS011;34247;50.064;19.970;2023-04-25T00:44:35;1.33;;;1.23;;
21084;SDS011;34247;50.064;19.970;2023-04-25T00:45:41;1.27;;;0.90;;
21084;SDS011;34247;50.064;19.970;2023-04-25T00:46:49;1.08;;;1.08;;
21084;SDS011;34247;50.064;19.970;2023-04-25T00:47:54;0.88;;;0.88;;
21084;SDS011;34247;50.064;19.970;2023-04-25T00:48:59;0.95;;;0.95;;
21084;SDS011;34247;50.064;19.970;2023-04-25T00:50:03;0.77;;;0.77;;
21084;SDS011;34247;50.064;19.970;2023-04-25T00:51:09;0.93;;;0.93;;
21084;SDS011;34247;50.064;19.970;2023-04-25T00:52:19;0.80;;;0.80;;
21084;SDS011;34247;50.064;19.970;2023-04-25T00:53:24;1.20;;;0.80;;
21084;SDS011;34247;50.064;19.970;2023-04-25T00:54:31;0.60;;;0.60;;
21084;SDS011;34247;50.064;19.970;2023-04-25T00:55:35;0.70;;;0.70;;
21084;SDS011;34247;50.064;19.970;2023-04-25T00:56:39;1.10;;;0.80;;
21084;SDS011;34247;50.064;19.970;2023-04-25T00:57:44;0.70;;;0.70;;
21084;SDS011;34247;50.064;19.970;2023-04-25T00:59:04;0.80;;;0.80;;
21084;SDS011;34247;50.064;19.970;2023-04-25T01:00:08;0.80;;;0.80;;
21084;SDS011;34247;50.064;19.970;2023-04-25T01:01:17;0.90;;;0.90;;
21084;SDS011;34247;50.064;19.970;2023-04-25T01:02:27;0.75;;;0.75;;
21084;SDS011;34247;50.064;19.970;2023-04-25T01:03:32;0.88;;;0.88;;
21084;SDS011;34247;50.064;19.970;2023-04-25T01:04:44;1.52;;;1.13;;
21084;SDS011;34247;50.064;19.970;2023-04-25T01:05:48;0.70;;;0.70;;
21084;SDS011;34247;50.064;19.970;2023-04-25T01:06:52;0.65;;;0.65;;
21084;SDS011;34247;50.064;19.970;2023-04-25T01:07:56;0.75;;;0.75;;
21084;SDS011;34247;50.064;19.970;2023-04-25T01:09:01;0.68;;;0.68;;
21084;SDS011;34247;50.064;19.970;2023-04-25T01:10:07;0.63;;;0.63;;
21084;SDS011;34247;50.064;19.970;2023-04-25T01:11:11;0.82;;;0.82;;
21084;SDS011;34247;50.064;19.970;2023-04-25T01:12:17;0.80;;;0.80;;
21084;SDS011;34247;50.064;19.970;2023-04-25T01:13:23;0.90;;;0.90;;
21084;SDS011;34247;50.064;19.970;2023-04-25T01:14:31;1.05;;;1.05;;
21084;SDS011;34247;50.064;19.970;2023-04-25T01:15:35;0.95;;;0.95;;
21084;SDS011;34247;50.064;19.970;2023-04-25T01:16:38;0.70;;;0.70;;
21084;SDS011;34247;50.064;19.970;2023-04-25T01:17:43;0.90;;;0.90;;
21084;SDS011;34247;50.064;19.970;2023-04-25T01:18:48;0.60;;;0.60;;
21084;SDS011;34247;50.064;19.970;2023-04-25T01:19:53;1.42;;;1.25;;
21084;SDS011;34247;50.064;19.970;2023-04-25T01:21:02;0.80;;;0.80;;
21084;SDS011;34247;50.064;19.970;2023-04-25T01:22:16;0.98;;;0.85;;
21084;SDS011;34247;50.064;19.970;2023-04-25T01:23:22;0.80;;;0.80;;
21084;SDS011;34247;50.064;19.970;2023-04-25T01:24:33;0.82;;;0.80;;
21084;SDS011;34247;50.064;19.970;2023-04-25T01:25:44;0.90;;;0.90;;
21084;SDS011;34247;50.064;19.970;2023-04-25T01:26:52;1.30;;;0.70;;
21084;SDS011;34247;50.064;19.970;2023-04-25T01:28:00;0.70;;;0.70;;
21084;SDS011;34247;50.064;19.970;2023-04-25T01:29:04;0.82;;;0.82;;
21084;SDS011;34247;50.064;19.970;2023-04-25T01:30:08;0.90;;;0.90;;
21084;SDS011;34247;50.064;19.970;2023-04-25T01:31:12;0.63;;;0.63;;
21084;SDS011;34247;50.064;19.970;2023-04-25T01:32:18;1.02;;;0.93;;
21084;SDS011;34247;50.064;19.970;2023-04-25T01:33:23;0.68;;;0.68;;
21084;SDS011;34247;50.064;19.970;2023-04-25T01:34:27;1.08;;;0.90;;
21084;SDS011;34247;50.064;19.970;2023-04-25T01:35:31;0.95;;;0.90;;
21084;SDS011;34247;50.064;19.970;2023-04-25T01:36:35;1.23;;;1.00;;
21084;SDS011;34247;50.064;19.970;2023-04-25T01:37:39;2.95;;;1.17;;
21084;SDS011;34247;50.064;19.970;2023-04-25T01:38:44;0.60;;;0.60;;
21084;SDS011;34247;50.064;19.970;2023-04-25T01:39:50;0.80;;;0.80;;
21084;SDS011;34247;50.064;19.970;2023-04-25T01:40:54;0.70;;;0.70;;
21084;SDS011;34247;50.064;19.970;2023-04-25T01:41:58;0.85;;;0.85;;
21084;SDS011;34247;50.064;19.970;2023-04-25T01:43:04;0.65;;;0.65;;
21084;SDS011;34247;50.064;19.970;2023-04-25T01:44:08;2.47;;;0.90;;
21084;SDS011;34247;50.064;19.970;2023-04-25T01:45:12;0.80;;;0.80;;
21084;SDS011;34247;50.064;19.970;2023-04-25T01:46:16;0.90;;;0.90;;
21084;SDS011;34247;50.064;19.970;2023-04-25T01:47:21;0.82;;;0.80;;
21084;SDS011;34247;50.064;19.970;2023-04-25T01:48:25;1.73;;;1.00;;
21084;SDS011;34247;50.064;19.970;2023-04-25T01:49:29;0.82;;;0.82;;
21084;SDS011;34247;50.064;19.970;2023-04-25T01:50:34;2.95;;;1.10;;
21084;SDS011;34247;50.064;19.970;2023-04-25T01:51:38;0.95;;;0.95;;
21084;SDS011;34247;50.064;19.970;2023-04-25T01:52:42;0.77;;;0.77;;
21084;SDS011;34247;50.064;19.970;2023-04-25T01:53:46;0.82;;;0.82;;
21084;SDS011;34247;50.064;19.970;2023-04-25T01:54:50;1.02;;;1.02;;
21084;SDS011;34247;50.064;19.970;2023-04-25T01:56:00;0.70;;;0.70;;
21084;SDS011;34247;50.064;19.970;2023-04-25T01:57:04;0.60;;;0.60;;
21084;SDS011;34247;50.064;19.970;2023-04-25T01:58:08;0.70;;;0.70;;
21084;SDS011;34247;50.064;19.970;2023-04-25T01:59:15;0.75;;;0.75;;
21084;SDS011;34247;50.064;19.970;2023-04-25T02:00:18;7.20;;;1.30;;
21084;SDS011;34247;50.064;19.970;2023-04-25T02:01:22;0.98;;;0.95;;
21084;SDS011;34247;50.064;19.970;2023-04-25T02:02:26;1.10;;;1.10;;
21084;SDS011;34247;50.064;19.970;2023-04-25T02:03:31;0.98;;;0.98;;
21084;SDS011;34247;50.064;19.970;2023-04-25T02:04:36;1.20;;;1.10;;
21084;SDS011;34247;50.064;19.970;2023-04-25T02:05:40;0.93;;;0.93;;
21084;SDS011;34247;50.064;19.970;2023-04-25T02:06:44;1.00;;;0.90;;
21084;SDS011;34247;50.064;19.970;2023-04-25T02:07:48;1.00;;;1.00;;
21084;SDS011;34247;50.064;19.970;2023-04-25T02:08:51;1.48;;;1.30;;
21084;SDS011;34247;50.064;19.970;2023-04-25T02:09:56;1.25;;;1.08;;
21084;SDS011;34247;50.064;19.970;2023-04-25T02:11:01;2.47;;;1.13;;
21084;SDS011;34247;50.064;19.970;2023-04-25T02:12:07;1.02;;;1.00;;
21084;SDS011;34247;50.064;19.970;2023-04-25T02:13:13;0.80;;;0.80;;
21084;SDS011;34247;50.064;19.970;2023-04-25T02:14:17;1.52;;;0.93;;
21084;SDS011;34247;50.064;19.970;2023-04-25T02:15:20;2.25;;;1.52;;
21084;SDS011;34247;50.064;19.970;2023-04-25T02:16:24;0.88;;;0.88;;
21084;SDS011;34247;50.064;19.970;2023-04-25T02:17:29;1.00;;;1.00;;
21084;SDS011;34247;50.064;19.970;2023-04-25T02:18:34;2.00;;;1.30;;
21084;SDS011;34247;50.064;19.970;2023-04-25T02:19:40;1.63;;;1.52;;
21084;SDS011;34247;50.064;19.970;2023-04-25T02:20:43;2.55;;;1.33;;
21084;SDS011;34247;50.064;19.970;2023-04-25T02:21:49;1.40;;;1.30;;
21084;SDS011;34247;50.064;19.970;2023-04-25T02:22:53;1.52;;;1.10;;
21084;SDS011;34247;50.064;19.970;2023-04-25T02:23:57;1.15;;;1.15;;
21084;SDS011;34247;50.064;19.970;2023-04-25T02:25:01;0.90;;;0.90;;
21084;SDS011;34247;50.064;19.970;2023-04-25T02:26:10;1.10;;;1.08;;
21084;SDS011;34247;50.064;19.970;2023-04-25T02:27:16;1.52;;;1.30;;
21084;SDS011;34247;50.064;19.970;2023-04-25T02:28:20;1.02;;;1.02;;
21084;SDS011;34247;50.064;19.970;2023-04-25T02:29:24;5.50;;;1.13;;
21084;SDS011;34247;50.064;19.970;2023-04-25T02:30:28;1.40;;;1.30;;
21084;SDS011;34247;50.064;19.970;2023-04-25T02:31:32;1.75;;;1.65;;
21084;SDS011;34247;50.064;19.970;2023-04-25T02:32:36;1.38;;;1.00;;
21084;SDS011;34247;50.064;19.970;2023-04-25T02:33:40;1.33;;;1.23;;
21084;SDS011;34247;50.064;19.970;2023-04-25T02:34:46;3.65;;;1.13;;
21084;SDS011;34247;50.064;19.970;2023-04-25T02:35:50;0.93;;;0.93;;
21084;SDS011;34247;50.064;19.970;2023-04-25T02:36:54;2.83;;;1.42;;
21084;SDS011;34247;50.064;19.970;2023-04-25T02:37:59;2.65;;;1.23;;
21084;SDS011;34247;50.064;19.970;2023-04-25T02:39:02;3.22;;;1.30;;
21084;SDS011;34247;50.064;19.970;2023-04-25T02:40:08;1.92;;;1.50;;
21084;SDS011;34247;50.064;19.970;2023-04-25T02:41:13;1.70;;;1.60;;
21084;SDS011;34247;50.064;19.970;2023-04-25T02:42:18;1.25;;;1.17;;
21084;SDS011;34247;50.064;19.970;2023-04-25T02:43:22;1.00;;;0.85;;
21084;SDS011;34247;50.064;19.970;2023-04-25T02:44:26;0.95;;;0.95;;
21084;SDS011;34247;50.064;19.970;2023-04-25T02:45:30;1.27;;;1.17;;
21084;SDS011;34247;50.064;19.970;2023-04-25T02:46:34;1.10;;;1.10;;
21084;SDS011;34247;50.064;19.970;2023-04-25T02:47:41;2.25;;;1.40;;
21084;SDS011;34247;50.064;19.970;2023-04-25T02:48:46;1.67;;;1.45;;
21084;SDS011;34247;50.064;19.970;2023-04-25T02:49:50;1.38;;;1.33;;
21084;SDS011;34247;50.064;19.970;2023-04-25T02:50:54;4.68;;;1.70;;
21084;SDS011;34247;50.064;19.970;2023-04-25T02:51:58;1.73;;;1.63;;
21084;SDS011;34247;50.064;19.970;2023-04-25T02:53:02;1.55;;;1.45;;
21084;SDS011;34247;50.064;19.970;2023-04-25T02:54:07;2.05;;;1.23;;
21084;SDS011;34247;50.064;19.970;2023-04-25T02:55:12;1.75;;;1.10;;
21084;SDS011;34247;50.064;19.970;2023-04-25T02:56:17;1.52;;;1.30;;
21084;SDS011;34247;50.064;19.970;2023-04-25T02:57:21;2.72;;;1.45;;
21084;SDS011;34247;50.064;19.970;2023-04-25T02:58:25;1.30;;;1.20;;
21084;SDS011;34247;50.064;19.970;2023-04-25T02:59:33;1.67;;;1.35;;
21084;SDS011;34247;50.064;19.970;2023-04-25T03:00:38;1.33;;;1.27;;
21084;SDS011;34247;50.064;19.970;2023-04-25T03:01:45;1.30;;;1.17;;
21084;SDS011;34247;50.064;19.970;2023-04-25T03:02:53;1.02;;;1.02;;
21084;SDS011;34247;50.064;19.970;2023-04-25T03:03:59;1.73;;;1.50;;
21084;SDS011;34247;50.064;19.970;2023-04-25T03:05:04;2.05;;;1.15;;
21084;SDS011;34247;50.064;19.970;2023-04-25T03:06:11;1.08;;;1.08;;
21084;SDS011;34247;50.064;19.970;2023-04-25T03:07:18;2.03;;;1.40;;
21084;SDS011;34247;50.064;19.970;2023-04-25T03:08:25;1.60;;;1.50;;
21084;SDS011;34247;50.064;19.970;2023-04-25T03:09:35;1.27;;;1.17;;
21084;SDS011;34247;50.064;19.970;2023-04-25T03:10:40;2.10;;;1.23;;
21084;SDS011;34247;50.064;19.970;2023-04-25T03:11:45;1.50;;;1.40;;
21084;SDS011;34247;50.064;19.970;2023-04-25T03:12:49;1.58;;;1.33;;
21084;SDS011;34247;50.064;19.970;2023-04-25T03:13:53;1.00;;;0.95;;
21084;SDS011;34247;50.064;19.970;2023-04-25T03:14:59;2.03;;;1.08;;
21084;SDS011;34247;50.064;19.970;2023-04-25T03:16:03;1.88;;;1.77;;
21084;SDS011;34247;50.064;19.970;2023-04-25T03:17:13;1.20;;;1.20;;
21084;SDS011;34247;50.064;19.970;2023-04-25T03:18:17;3.50;;;1.30;;
21084;SDS011;34247;50.064;19.970;2023-04-25T03:19:21;0.90;;;0.90;;
21084;SDS011;34247;50.064;19.970;2023-04-25T03:20:25;1.25;;;1.10;;
21084;SDS011;34247;50.064;19.970;2023-04-25T03:21:28;2.65;;;1.65;;
21084;SDS011;34247;50.064;19.970;2023-04-25T03:22:37;1.75;;;1.20;;
21084;SDS011;34247;50.064;19.970;2023-04-25T03:23:41;3.25;;;1.33;;
21084;SDS011;34247;50.064;19.970;2023-04-25T03:24:45;2.03;;;1.10;;
21084;SDS011;34247;50.064;19.970;2023-04-25T03:25:52;1.38;;;1.27;;
21084;SDS011;34247;50.064;19.970;2023-04-25T03:26:57;3.58;;;1.58;;
21084;SDS011;34247;50.064;19.970;2023-04-25T03:28:01;1.13;;;1.10;;
21084;SDS011;34247;50.064;19.970;2023-04-25T03:29:05;1.30;;;1.20;;
21084;SDS011;34247;50.064;19.970;2023-04-25T03:30:09;1.42;;;1.33;;
21084;SDS011;34247;50.064;19.970;2023-04-25T03:31:16;2.35;;;1.60;;
21084;SDS011;34247;50.064;19.970;2023-04-25T03:32:20;1.45;;;1.35;;
21084;SDS011;34247;50.064;19.970;2023-04-25T03:33:24;1.70;;;1.60;;
21084;SDS011;34247;50.064;19.970;2023-04-25T03:34:28;1.20;;;1.20;;
21084;SDS011;34247;50.064;19.970;2023-04-25T03:35:32;1.73;;;1.63;;
21084;SDS011;34247;50.064;19.970;2023-04-25T03:36:35;2.83;;;1.58;;
21084;SDS011;34247;50.064;19.970;2023-04-25T03:37:42;1.50;;;1.40;;
21084;SDS011;34247;50.064;19.970;2023-04-25T03:38:48;2.15;;;1.67;;
21084;SDS011;34247;50.064;19.970;2023-04-25T03:39:52;1.55;;;1.42;;
21084;SDS011;34247;50.064;19.970;2023-04-25T03:40:56;2.40;;;1.77;;
21084;SDS011;34247;50.064;19.970;2023-04-25T03:42:00;2.78;;;2.42;;
21084;SDS011;34247;50.064;19.970;2023-04-25T03:43:09;2.03;;;1.73;;
21084;SDS011;34247;50.064;19.970;2023-04-25T03:44:16;1.85;;;1.75;;
21084;SDS011;34247;50.064;19.970;2023-04-25T03:45:20;4.93;;;1.95;;
21084;SDS011;34247;50.064;19.970;2023-04-25T03:46:24;1.70;;;1.60;;
21084;SDS011;34247;50.064;19.970;2023-04-25T03:47:28;2.38;;;1.90;;
21084;SDS011;34247;50.064;19.970;2023-04-25T03:48:32;2.28;;;1.45;;
21084;SDS011;34247;50.064;19.970;2023-04-25T03:49:36;2.00;;;1.80;;
21084;SDS011;34247;50.064;19.970;2023-04-25T03:50:40;5.72;;;1.95;;
21084;SDS011;34247;50.064;19.970;2023-04-25T03:51:44;8.98;;;1.98;;
21084;SDS011;34247;50.064;19.970;2023-04-25T03:52:48;4.38;;;2.28;;
21084;SDS011;34247;50.064;19.970;2023-04-25T03:53:52;3.80;;;2.13;;
21084;SDS011;34247;50.064;19.970;2023-04-25T03:54:56;2.75;;;2.55;;
21084;SDS011;34247;50.064;19.970;2023-04-25T03:56:00;3.20;;;2.13;;
21084;SDS011;34247;50.064;19.970;2023-04-25T03:57:04;3.88;;;2.15;;
21084;SDS011;34247;50.064;19.970;2023-04-25T03:58:08;2.80;;;1.63;;
21084;SDS011;34247;50.064;19.970;2023-04-25T03:59:11;2.95;;;1.73;;
21084;SDS011;34247;50.064;19.970;2023-04-25T04:00:16;2.15;;;1.92;;
21084;SDS011;34247;50.064;19.970;2023-04-25T04:01:20;1.88;;;1.77;;
21084;SDS011;34247;50.064;19.970;2023-04-25T04:02:24;2.88;;;2.22;;
21084;SDS011;34247;50.064;19.970;2023-04-25T04:03:28;1.88;;;1.77;;
21084;SDS011;34247;50.064;19.970;2023-04-25T04:04:32;1.42;;;1.38;;
21084;SDS011;34247;50.064;19.970;2023-04-25T04:05:36;5.63;;;2.17;;
21084;SDS011;34247;50.064;19.970;2023-04-25T04:06:43;2.30;;;2.10;;
21084;SDS011;34247;50.064;19.970;2023-04-25T04:07:47;2.58;;;2.35;;
21084;SDS011;34247;50.064;19.970;2023-04-25T04:08:51;2.67;;;2.38;;
21084;SDS011;34247;50.064;19.970;2023-04-25T04:09:56;2.30;;;2.10;;
21084;SDS011;34247;50.064;19.970;2023-04-25T04:10:59;2.40;;;2.20;;
21084;SDS011;34247;50.064;19.970;2023-04-25T04:12:03;4.13;;;2.25;;
21084;SDS011;34247;50.064;19.970;2023-04-25T04:13:08;1.75;;;1.65;;
21084;SDS011;34247;50.064;19.970;2023-04-25T04:14:11;2.83;;;2.30;;
21084;SDS011;34247;50.064;19.970;2023-04-25T04:15:15;4.70;;;3.03;;
21084;SDS011;34247;50.064;19.970;2023-04-25T04:16:19;2.50;;;2.17;;
21084;SDS011;34247;50.064;19.970;2023-04-25T04:17:23;1.70;;;1.55;;
21084;SDS011;34247;50.064;19.970;2023-04-25T04:18:28;1.98;;;1.88;;
21084;SDS011;34247;50.064;19.970;2023-04-25T04:19:31;3.13;;;2.00;;
21084;SDS011;34247;50.064;19.970;2023-04-25T04:20:35;3.10;;;2.33;;
21084;SDS011;34247;50.064;19.970;2023-04-25T04:21:39;2.47;;;2.25;;
21084;SDS011;34247;50.064;19.970;2023-04-25T04:22:43;2.33;;;2.05;;
21084;SDS011;34247;50.064;19.970;2023-04-25T04:23:47;5.10;;;2.22;;
21084;SDS011;34247;50.064;19.970;2023-04-25T04:24:51;1.75;;;1.65;;
21084;SDS011;34247;50.064;19.970;2023-04-25T04:25:55;7.00;;;2.70;;
21084;SDS011;34247;50.064;19.970;2023-04-25T04:26:59;2.80;;;2.13;;
21084;SDS011;34247;50.064;19.970;2023-04-25T04:28:03;2.25;;;2.05;;
21084;SDS011;34247;50.064;19.970;2023-04-25T04:29:08;2.70;;;2.08;;
21084;SDS011;34247;50.064;19.970;2023-04-25T04:30:11;1.55;;;1.42;;
21084;SDS011;34247;50.064;19.970;2023-04-25T04:31:15;3.05;;;1.80;;
21084;SDS011;34247;50.064;19.970;2023-04-25T04:32:22;2.20;;;1.70;;
21084;SDS011;34247;50.064;19.970;2023-04-25T04:33:26;2.05;;;1.95;;
21084;SDS011;34247;50.064;19.970;2023-04-25T04:34:31;2.15;;;1.92;;
21084;SDS011;34247;50.064;19.970;2023-04-25T04:35:34;2.22;;;2.00;;
21084;SDS011;34247;50.064;19.970;2023-04-25T04:36:38;2.55;;;1.77;;
21084;SDS011;34247;50.064;19.970;2023-04-25T04:37:43;3.55;;;2.80;;
21084;SDS011;34247;50.064;19.970;2023-04-25T04:38:48;2.55;;;2.35;;
21084;SDS011;34247;50.064;19.970;2023-04-25T04:39:52;3.25;;;2.83;;
21084;SDS011;34247;50.064;19.970;2023-04-25T04:40:56;2.80;;;2.38;;
21084;SDS011;34247;50.064;19.970;2023-04-25T04:42:00;5.38;;;2.35;;
21084;SDS011;34247;50.064;19.970;2023-04-25T04:43:12;2.08;;;1.88;;
21084;SDS011;34247;50.064;19.970;2023-04-25T04:44:17;1.90;;;1.80;;
21084;SDS011;34247;50.064;19.970;2023-04-25T04:45:21;2.03;;;1.92;;
21084;SDS011;34247;50.064;19.970;2023-04-25T04:46:25;2.67;;;2.47;;
21084;SDS011;34247;50.064;19.970;2023-04-25T04:47:31;2.42;;;1.90;;
21084;SDS011;34247;50.064;19.970;2023-04-25T04:48:37;1.80;;;1.70;;
21084;SDS011;34247;50.064;19.970;2023-04-25T04:49:42;4.03;;;2.50;;
21084;SDS011;34247;50.064;19.970;2023-04-25T04:50:47;2.00;;;1.90;;
21084;SDS011;34247;50.064;19.970;2023-04-25T04:51:53;2.78;;;2.55;;
21084;SDS011;34247;50.064;19.970;2023-04-25T04:53:01;2.70;;;2.22;;
21084;SDS011;34247;50.064;19.970;2023-04-25T04:54:10;2.17;;;1.85;;
21084;SDS011;34247;50.064;19.970;2023-04-25T04:55:13;3.22;;;2.22;;
21084;SDS011;34247;50.064;19.970;2023-04-25T04:56:18;1.80;;;1.70;;
21084;SDS011;34247;50.064;19.970;2023-04-25T04:57:23;2.47;;;2.28;;
21084;SDS011;34247;50.064;19.970;2023-04-25T04:58:28;5.13;;;2.50;;
21084;SDS011;34247;50.064;19.970;2023-04-25T04:59:32;4.68;;;3.03;;
21084;SDS011;34247;50.064;19.970;2023-04-25T05:00:37;2.45;;;2.30;;
21084;SDS011;34247;50.064;19.970;2023-04-25T05:01:41;7.68;;;3.08;;
21084;SDS011;34247;50.064;19.970;2023-04-25T05:02:45;3.95;;;2.30;;
21084;SDS011;34247;50.064;19.970;2023-04-25T05:03:49;2.95;;;2.60;;
21084;SDS011;34247;50.064;19.970;2023-04-25T05:04:53;3.15;;;2.85;;
21084;SDS011;34247;50.064;19.970;2023-04-25T05:06:00;7.18;;;2.70;;
21084;SDS011;34247;50.064;19.970;2023-04-25T05:07:04;2.83;;;2.20;;
21084;SDS011;34247;50.064;19.970;2023-04-25T05:08:07;4.60;;;2.70;;
21084;SDS011;34247;50.064;19.970;2023-04-25T05:09:12;3.55;;;2.80;;
21084;SDS011;34247;50.064;19.970;2023-04-25T05:10:16;7.60;;;3.50;;
21084;SDS011;34247;50.064;19.970;2023-04-25T05:11:22;4.65;;;3.38;;
21084;SDS011;34247;50.064;19.970;2023-04-25T05:12:28;4.25;;;3.47;;
21084;SDS011;34247;50.064;19.970;2023-04-25T05:13:33;4.07;;;2.95;;
21084;SDS011;34247;50.064;19.970;2023-04-25T05:14:37;2.65;;;2.40;;
21084;SDS011;34247;50.064;19.970;2023-04-25T05:15:41;2.60;;;2.40;;
21084;SDS011;34247;50.064;19.970;2023-04-25T05:16:45;2.53;;;2.17;;
21084;SDS011;34247;50.064;19.970;2023-04-25T05:17:49;3.67;;;3.08;;
21084;SDS011;34247;50.064;19.970;2023-04-25T05:18:53;8.50;;;3.03;;
21084;SDS011;34247;50.064;19.970;2023-04-25T05:19:57;4.15;;;2.75;;
21084;SDS011;34247;50.064;19.970;2023-04-25T05:21:01;2.95;;;2.38;;
21084;SDS011;34247;50.064;19.970;2023-04-25T05:22:05;3.20;;;2.22;;
21084;SDS011;34247;50.064;19.970;2023-04-25T05:23:12;2.78;;;2.22;;
21084;SDS011;34247;50.064;19.970;2023-04-25T05:24:16;2.42;;;2.13;;
21084;SDS011;34247;50.064;19.970;2023-04-25T05:25:21;4.55;;;2.10;;
21084;SDS011;34247;50.064;19.970;2023-04-25T05:26:25;3.15;;;2.28;;
21084;SDS011;34247;50.064;19.970;2023-04-25T05:27:29;5.07;;;2.35;;
21084;SDS011;34247;50.064;19.970;2023-04-25T05:28:33;4.80;;;2.22;;
21084;SDS011;34247;50.064;19.970;2023-04-25T05:29:36;1.67;;;1.58;;
21084;SDS011;34247;50.064;19.970;2023-04-25T05:30:40;2.40;;;2.20;;
21084;SDS011;34247;50.064;19.970;2023-04-25T05:31:47;2.28;;;2.00;;
21084;SDS011;34247;50.064;19.970;2023-04-25T05:32:51;4.68;;;2.38;;
21084;SDS011;34247;50.064;19.970;2023-04-25T05:33:55;4.25;;;2.45;;
21084;SDS011;34247;50.064;19.970;2023-04-25T05:34:59;3.13;;;2.63;;
21084;SDS011;34247;50.064;19.970;2023-04-25T05:36:03;1.95;;;1.70;;
21084;SDS011;34247;50.064;19.970;2023-04-25T05:37:11;2.63;;;2.42;;
21084;SDS011;34247;50.064;19.970;2023-04-25T05:38:14;2.47;;;1.67;;
21084;SDS011;34247;50.064;19.970;2023-04-25T05:39:18;2.15;;;1.95;;
21084;SDS011;34247;50.064;19.970;2023-04-25T05:40:23;2.47;;;1.77;;
21084;SDS011;34247;50.064;19.970;2023-04-25T05:41:26;1.63;;;1.52;;
21084;SDS011;34247;50.064;19.970;2023-04-25T05:42:33;2.28;;;1.85;;
21084;SDS011;34247;50.064;19.970;2023-04-25T05:43:37;1.70;;;1.60;;
21084;SDS011;34247;50.064;19.970;2023-04-25T05:44:41;1.92;;;1.73;;
21084;SDS011;34247;50.064;19.970;2023-04-25T05:45:45;2.30;;;2.10;;
21084;SDS011;34247;50.064;19.970;2023-04-25T05:46:49;2.85;;;1.88;;
21084;SDS011;34247;50.064;19.970;2023-04-25T05:47:53;2.65;;;1.52;;
21084;SDS011;34247;50.064;19.970;2023-04-25T05:48:57;2.08;;;1.77;;
21084;SDS011;34247;50.064;19.970;2023-04-25T05:50:06;2.08;;;1.88;;
21084;SDS011;34247;50.064;19.970;2023-04-25T05:51:11;4.07;;;1.55;;
21084;SDS011;34247;50.064;19.970;2023-04-25T05:52:15;2.28;;;2.13;;
21084;SDS011;34247;50.064;19.970;2023-04-25T05:53:20;8.82;;;1.70;;
21084;SDS011;34247;50.064;19.970;2023-04-25T05:54:25;1.70;;;1.60;;
21084;SDS011;34247;50.064;19.970;2023-04-25T05:55:29;4.80;;;2.25;;
21084;SDS011;34247;50.064;19.970;2023-04-25T05:56:33;1.80;;;1.70;;
21084;SDS011;34247;50.064;19.970;2023-04-25T05:57:37;1.88;;;1.75;;
21084;SDS011;34247;50.064;19.970;2023-04-25T05:58:44;1.70;;;1.60;;
21084;SDS011;34247;50.064;19.970;2023-04-25T05:59:48;1.63;;;1.52;;
21084;SDS011;34247;50.064;19.970;2023-04-25T06:00:55;2.28;;;1.88;;
21084;SDS011;34247;50.064;19.970;2023-04-25T06:01:59;2.17;;;1.80;;
21084;SDS011;34247;50.064;19.970;2023-04-25T06:03:04;1.95;;;1.63;;
21084;SDS011;34247;50.064;19.970;2023-04-25T06:04:21;1.90;;;1.80;;
21084;SDS011;34247;50.064;19.970;2023-04-25T06:05:25;2.08;;;1.67;;
21084;SDS011;34247;50.064;19.970;2023-04-25T06:06:30;3.08;;;1.90;;
21084;SDS011;34247;50.064;19.970;2023-04-25T06:07:34;1.50;;;1.40;;
21084;SDS011;34247;50.064;19.970;2023-04-25T06:08:38;1.75;;;1.60;;
21084;SDS011;34247;50.064;19.970;2023-04-25T06:09:43;2.65;;;2.03;;
21084;SDS011;34247;50.064;19.970;2023-04-25T06:10:47;2.97;;;2.17;;
21084;SDS011;34247;50.064;19.970;2023-04-25T06:11:58;2.00;;;1.90;;
21084;SDS011;34247;50.064;19.970;2023-04-25T06:13:03;2.03;;;1.67;;
21084;SDS011;34247;50.064;19.970;2023-04-25T06:14:08;2.10;;;1.75;;
21084;SDS011;34247;50.064;19.970;2023-04-25T06:15:11;2.22;;;2.03;;
21084;SDS011;34247;50.064;19.970;2023-04-25T06:16:30;1.70;;;1.60;;
21084;SDS011;34247;50.064;19.970;2023-04-25T06:17:35;2.00;;;1.65;;
21084;SDS011;34247;50.064;19.970;2023-04-25T06:18:39;1.20;;;1.20;;
21084;SDS011;34247;50.064;19.970;2023-04-25T06:19:43;2.00;;;1.90;;
21084;SDS011;34247;50.064;19.970;2023-04-25T06:20:47;1.60;;;1.50;;
21084;SDS011;34247;50.064;19.970;2023-04-25T06:21:51;1.65;;;1.55;;
21084;SDS011;34247;50.064;19.970;2023-04-25T06:22:56;6.05;;;1.50;;
21084;SDS011;34247;50.064;19.970;2023-04-25T06:24:00;1.63;;;1.52;;
21084;SDS011;34247;50.064;19.970;2023-04-25T06:25:04;3.80;;;1.63;;